Airfield :
LOGIN :

Register | Disclaimer

   EN    FR    IT 

 










Legend :    VFR   Marginal VFR   IFR   Intensive IFR   Very Intensive IFR
Visi :
Ceiling :
>= 8 km
>= 3000ft
5 to 8 km
1000 to 3000 ft
1500m to 5 km
500 to 1000 ft
800 to 1500m
200 to 500 ft
< 800m
< 200 ft
Symbols :   Thunderstorms  Fog  Heavy snow  Heavy precipitations  Wind > 20 kt
SIGMETs :     Misc.  Thunderstorms  Icing  Turbulence  Mountain Waves  Volcanic Ashes






- Airport Elevation : 162 ft
- IATA code : BOD


LFBD - Bordeaux / Merignac

CURRENT METAR :
  • 200000Z AUTO VRB03KT CAVOK 09/06 Q1021 NOSIG

EXPIRED METARs :
  • 192330Z AUTO VRB03KT CAVOK 09/06 Q1021 NOSIG
  • 192300Z AUTO 35005KT 320V030 CAVOK 10/06 Q1021 NOSIG
  • 192230Z AUTO 35005KT CAVOK 10/06 Q1021 NOSIG
  • 192200Z AUTO 35009KT CAVOK 10/06 Q1021 NOSIG
  • 192130Z AUTO 34006KT 320V030 CAVOK 11/05 Q1021 NOSIG
  • 192100Z AUTO 35005KT 330V040 CAVOK 11/04 Q1021 NOSIG
  • 192030Z AUTO 32006KT CAVOK 12/03 Q1021 NOSIG
  • 192000Z AUTO 36008KT 320V050 CAVOK 13/03 Q1021 NOSIG
  • 191930Z AUTO 36007KT CAVOK 14/03 Q1021 NOSIG

TAF TAF LFBD
Valid from the 20 at 00:00 until the 21 at 06:00 UTC


192300Z 2000/2106 VRB03KT CAVOK TX19/2014Z TN06/2106Z
PROB40
TEMPO 2002/2006 1500 MIFG
BECMG 2007/2009 06010KT
ATIS : +33 5 57 92 81 04



MET'MAP, your aeronautical weather chart ! - Copyright ORBIFLY December 2007 - Disclaimer

ORBIFLY MET'MAP TEAM :

Programming & Development : Alexandra Zaïnal
Original concept : Baudouin d'Aumeries
Technical & hardware support : Manuel Goepfert
Assistance : Marc-Olivier Méhu




SOURCES & CREDITS :

   NOAA